createdAt,value
2018-04-02T00:05:56.000Z,23.54
2018-04-02T00:15:56.000Z,23.5
2018-04-02T00:25:56.000Z,23.43
2018-04-02T00:35:56.000Z,23.38
2018-04-02T00:45:57.000Z,23.35
2018-04-02T00:55:59.000Z,23.27
2018-04-02T01:05:57.000Z,23.25
2018-04-02T01:15:57.000Z,23.19
2018-04-02T01:25:57.000Z,23.16
2018-04-02T01:35:57.000Z,23.15
2018-04-02T01:45:57.000Z,23.11
2018-04-02T01:55:57.000Z,23.04
2018-04-02T02:05:59.000Z,23.02
2018-04-02T02:15:57.000Z,23.03
2018-04-02T02:25:57.000Z,22.97
2018-04-02T02:35:57.000Z,22.91
2018-04-02T02:45:57.000Z,22.91
2018-04-02T02:55:57.000Z,22.91
2018-04-02T03:05:57.000Z,22.88
2018-04-02T03:15:57.000Z,22.84
2018-04-02T03:25:57.000Z,22.77
2018-04-02T03:35:57.000Z,22.76
2018-04-02T03:45:57.000Z,22.74
2018-04-02T03:55:57.000Z,22.7
2018-04-02T04:05:57.000Z,22.69
2018-04-02T04:15:57.000Z,22.76
2018-04-02T04:25:57.000Z,22.73
2018-04-02T04:35:57.000Z,22.72
2018-04-02T04:45:57.000Z,22.8
2018-04-02T04:55:57.000Z,22.83
2018-04-02T05:05:57.000Z,22.85
2018-04-02T05:15:57.000Z,22.88
2018-04-02T05:25:57.000Z,22.86
2018-04-02T05:35:57.000Z,22.91
2018-04-02T05:45:57.000Z,22.95
2018-04-02T05:55:57.000Z,23.01
2018-04-02T06:05:57.000Z,23.04
2018-04-02T06:15:57.000Z,23.11
2018-04-02T06:25:57.000Z,23.19
2018-04-02T06:35:57.000Z,23.23
2018-04-02T06:45:57.000Z,23.28
2018-04-02T06:55:57.000Z,23.33
2018-04-02T07:05:57.000Z,23.37
2018-04-02T07:15:57.000Z,23.43
2018-04-02T07:25:57.000Z,23.83
2018-04-02T07:35:57.000Z,23.66
2018-04-02T07:45:57.000Z,23.37
2018-04-02T07:55:57.000Z,23.61
2018-04-02T08:05:57.000Z,23.53
2018-04-02T08:15:57.000Z,23.6
2018-04-02T08:25:58.000Z,23.71
2018-04-02T08:35:57.000Z,23.79
2018-04-02T08:45:58.000Z,23.84
2018-04-02T08:55:57.000Z,23.99
2018-04-02T09:05:57.000Z,24.11
2018-04-02T09:15:58.000Z,24.17
2018-04-02T09:25:58.000Z,24.23
2018-04-02T09:35:58.000Z,24.43
2018-04-02T09:45:58.000Z,24.52
2018-04-02T09:55:58.000Z,24.62
2018-04-02T10:05:58.000Z,24.6
2018-04-02T10:15:58.000Z,24.59
2018-04-02T10:25:58.000Z,24.68
2018-04-02T10:35:58.000Z,24.92
2018-04-02T10:45:58.000Z,24.88
2018-04-02T10:55:58.000Z,25.04
2018-04-02T11:05:58.000Z,25.14
2018-04-02T11:15:58.000Z,25.24
2018-04-02T11:25:58.000Z,25.25
2018-04-02T11:35:58.000Z,25.13
2018-04-02T11:45:58.000Z,25.14
2018-04-02T11:55:58.000Z,25.37
2018-04-02T12:05:58.000Z,25.63
2018-04-02T12:15:58.000Z,25.74
2018-04-02T12:25:58.000Z,25.68
2018-04-02T12:35:59.000Z,25.87
2018-04-02T12:45:58.000Z,25.86
2018-04-02T12:55:58.000Z,25.93
2018-04-02T13:05:58.000Z,25.92
2018-04-02T13:15:58.000Z,25.89
2018-04-02T13:25:58.000Z,26.05
2018-04-02T13:35:58.000Z,25.99
2018-04-02T13:45:58.000Z,26.09
2018-04-02T13:55:58.000Z,26.04
2018-04-02T14:05:58.000Z,26.17
2018-04-02T14:15:58.000Z,26.08
2018-04-02T14:25:58.000Z,26.04
2018-04-02T14:35:58.000Z,26.19
2018-04-02T14:45:58.000Z,26.13
2018-04-02T14:55:58.000Z,26.2
2018-04-02T15:06:02.000Z,26.07
2018-04-02T15:15:58.000Z,26.04
2018-04-02T15:35:59.000Z,26.21
2018-04-02T15:45:58.000Z,26.23
2018-04-02T15:55:58.000Z,26.05
2018-04-02T16:05:58.000Z,26.07
2018-04-02T16:15:58.000Z,26.15
2018-04-02T16:25:58.000Z,26.07
2018-04-02T16:35:58.000Z,26.08
2018-04-02T16:45:58.000Z,25.99
2018-04-02T16:55:58.000Z,26.02
2018-04-02T17:05:58.000Z,25.83
2018-04-02T17:15:59.000Z,26.07
2018-04-02T17:25:59.000Z,25.99
2018-04-02T17:35:59.000Z,25.84
2018-04-02T17:45:59.000Z,25.79
2018-04-02T17:56:00.000Z,25.78
2018-04-02T18:05:59.000Z,25.72
2018-04-02T18:15:59.000Z,25.68
2018-04-02T18:25:59.000Z,25.66
2018-04-02T18:35:59.000Z,25.54
2018-04-02T18:45:59.000Z,25.51
2018-04-02T18:55:59.000Z,25.41
2018-04-02T19:05:59.000Z,25.5
2018-04-02T19:15:59.000Z,25.31
2018-04-02T19:25:59.000Z,25.35
2018-04-02T19:35:59.000Z,25.23
2018-04-02T19:46:00.000Z,25.3
2018-04-02T19:56:01.000Z,25.135
2018-04-02T20:05:59.000Z,25.21
2018-04-02T20:15:59.000Z,25.28
2018-04-02T20:25:59.000Z,25.28
2018-04-02T20:35:59.000Z,25.31
2018-04-02T20:45:59.000Z,25.2
2018-04-02T20:55:59.000Z,25.27
2018-04-02T21:05:59.000Z,25.14
2018-04-02T21:15:59.000Z,25.2
2018-04-02T21:26:00.000Z,25.12
2018-04-02T21:35:59.000Z,25.09
2018-04-02T21:45:59.000Z,24.87
2018-04-02T21:55:59.000Z,24.65
2018-04-02T22:05:59.000Z,24.63
2018-04-02T22:15:59.000Z,24.41
2018-04-02T22:25:59.000Z,24.31
2018-04-02T22:36:09.000Z,24.18
2018-04-02T22:46:09.000Z,24.11
2018-04-02T22:56:09.000Z,23.94
2018-04-02T23:06:09.000Z,23.88
2018-04-02T23:16:09.000Z,23.81
2018-04-02T23:26:09.000Z,23.71
2018-04-02T23:36:09.000Z,23.71
2018-04-02T23:46:09.000Z,23.62
2018-04-02T23:56:09.000Z,23.56
